createdAt,value
2023-05-19T00:00:30.803Z,100537.79
2023-05-19T00:03:00.353Z,100537.64
2023-05-19T00:05:30.369Z,100537.70
2023-05-19T00:07:59.939Z,100536.80
2023-05-19T00:10:31.569Z,100536.09
2023-05-19T00:13:00.589Z,100541.96
2023-05-19T00:15:28.493Z,100539.73
2023-05-19T00:17:56.430Z,100535.27
2023-05-19T00:20:24.162Z,100537.41
2023-05-19T00:22:51.767Z,100539.48
2023-05-19T00:25:19.349Z,100539.35
2023-05-19T00:27:46.841Z,100540.52
2023-05-19T00:30:14.907Z,100543.49
2023-05-19T00:32:43.499Z,100547.22
2023-05-19T00:35:11.224Z,100545.63
2023-05-19T00:37:39.080Z,100550.95
2023-05-19T00:40:09.354Z,100551.99
2023-05-19T00:42:37.326Z,100553.45
2023-05-19T00:45:05.765Z,100556.13
2023-05-19T00:47:33.910Z,100559.72
2023-05-19T00:50:01.628Z,100564.30
2023-05-19T00:52:29.780Z,100566.39
2023-05-19T00:54:57.284Z,100567.89
2023-05-19T00:57:26.911Z,100568.85
2023-05-19T00:59:54.396Z,100572.77
2023-05-19T01:02:22.171Z,100573.93
2023-05-19T01:04:50.422Z,100576.20
2023-05-19T01:07:18.559Z,100576.73
2023-05-19T01:09:46.159Z,100577.90
2023-05-19T01:12:14.097Z,100574.61
2023-05-19T01:14:42.455Z,100578.55
2023-05-19T01:17:14.141Z,100578.27
2023-05-19T01:19:46.420Z,100582.79
2023-05-19T01:22:30.979Z,100585.16
2023-05-19T01:25:20.186Z,100586.96
2023-05-19T01:27:56.910Z,100588.24
2023-05-19T01:30:38.234Z,100589.60
2023-05-19T01:33:07.843Z,100588.79
2023-05-19T01:35:37.308Z,100588.15
2023-05-19T01:38:06.160Z,100590.57
2023-05-19T01:40:34.592Z,100587.15
2023-05-19T01:43:02.457Z,100590.16
2023-05-19T01:45:31.007Z,100591.33
2023-05-19T01:48:00.181Z,100590.96
2023-05-19T01:50:28.432Z,100589.08
2023-05-19T01:52:55.979Z,100590.77
2023-05-19T01:55:23.619Z,100595.06
2023-05-19T01:58:02.645Z,100596.62
2023-05-19T02:00:51.795Z,100598.77
2023-05-19T02:04:04.110Z,100594.69
2023-05-19T02:07:01.552Z,100590.70
2023-05-19T02:09:41.757Z,100600.10
2023-05-19T02:12:21.564Z,100597.33
2023-05-19T02:14:53.100Z,100604.69
2023-05-19T02:17:20.562Z,100607.02
2023-05-19T02:19:48.199Z,100601.23
2023-05-19T02:22:16.008Z,100597.69
2023-05-19T02:24:44.880Z,100597.58
2023-05-19T02:27:12.571Z,100601.38
2023-05-19T02:29:40.036Z,100605.77
2023-05-19T02:32:08.101Z,100607.09
2023-05-19T02:34:35.704Z,100612.71
2023-05-19T02:37:07.364Z,100616.64
2023-05-19T02:39:35.184Z,100619.73
2023-05-19T02:42:03.847Z,100621.95
2023-05-19T02:44:31.246Z,100625.20
2023-05-19T02:46:58.704Z,100622.23
2023-05-19T02:49:26.415Z,100626.33
2023-05-19T02:51:55.383Z,100629.12
2023-05-19T02:54:22.835Z,100625.11
2023-05-19T02:56:50.389Z,100632.44
2023-05-19T02:59:18.197Z,100634.84
2023-05-19T03:01:47.320Z,100634.01
2023-05-19T03:04:14.879Z,100633.45
2023-05-19T03:06:45.340Z,100630.01
2023-05-19T03:09:16.553Z,100633.17
2023-05-19T03:11:44.143Z,100634.40
2023-05-19T03:14:13.715Z,100635.09
2023-05-19T03:16:42.265Z,100637.56
2023-05-19T03:19:10.135Z,100636.90
2023-05-19T03:21:37.746Z,100637.55
2023-05-19T03:24:05.526Z,100637.15
2023-05-19T03:26:33.868Z,100634.19
2023-05-19T03:29:01.515Z,100636.50
2023-05-19T03:31:31.716Z,100638.06
2023-05-19T03:33:59.900Z,100637.84
2023-05-19T03:36:31.792Z,100641.86
2023-05-19T03:38:59.479Z,100638.05
2023-05-19T03:41:27.192Z,100645.09
2023-05-19T03:43:54.955Z,100641.59
2023-05-19T03:46:22.571Z,100642.21
2023-05-19T03:49:18.679Z,100640.72
2023-05-19T03:51:58.638Z,100641.65
2023-05-19T03:54:34.500Z,100644.61
2023-05-19T03:57:02.090Z,100646.63
2023-05-19T03:59:31.711Z,100653.44
2023-05-19T04:01:59.286Z,100650.85
2023-05-19T04:04:28.125Z,100655.46
2023-05-19T04:06:56.098Z,100655.08
2023-05-19T04:09:26.607Z,100653.98
2023-05-19T04:11:56.006Z,100655.70
2023-05-19T04:14:25.109Z,100658.54
2023-05-19T04:16:53.709Z,100656.84
2023-05-19T04:19:21.149Z,100657.22
2023-05-19T04:21:48.973Z,100663.61
2023-05-19T04:24:16.527Z,100668.73
2023-05-19T04:26:47.065Z,100669.27
2023-05-19T04:29:17.560Z,100673.55
2023-05-19T04:31:45.167Z,100675.59
2023-05-19T04:34:12.696Z,100677.42
2023-05-19T04:36:40.128Z,100682.54
2023-05-19T04:39:09.823Z,100683.34
2023-05-19T04:41:40.197Z,100685.01
2023-05-19T04:44:08.817Z,100681.56
2023-05-19T04:46:37.129Z,100677.33
2023-05-19T04:49:05.564Z,100670.97
2023-05-19T04:51:32.947Z,100671.93
2023-05-19T04:54:01.462Z,100675.23
2023-05-19T04:56:29.748Z,100678.42
2023-05-19T04:58:57.626Z,100674.95
2023-05-19T05:01:26.275Z,100676.11
2023-05-19T05:03:55.972Z,100677.73
2023-05-19T05:06:23.564Z,100681.15
2023-05-19T05:08:52.011Z,100683.95
2023-05-19T05:11:20.350Z,100685.64
2023-05-19T05:13:48.419Z,100680.89
2023-05-19T05:16:16.602Z,100687.48
2023-05-19T05:18:46.599Z,100687.43
2023-05-19T05:21:15.529Z,100687.84
2023-05-19T05:23:43.925Z,100687.79
2023-05-19T05:26:17.218Z,100686.31
2023-05-19T05:28:45.471Z,100695.20
2023-05-19T05:31:12.876Z,100698.95
2023-05-19T05:33:41.192Z,100700.98
2023-05-19T05:36:09.452Z,100703.48
2023-05-19T05:38:41.432Z,100706.15
2023-05-19T05:41:09.095Z,100711.77
2023-05-19T05:43:37.295Z,100710.48
2023-05-19T05:46:04.912Z,100715.27
2023-05-19T05:48:32.969Z,100714.61
2023-05-19T05:51:00.838Z,100722.68
2023-05-19T05:53:32.048Z,100724.04
2023-05-19T05:56:00.176Z,100724.84
2023-05-19T05:58:36.291Z,100729.36
2023-05-19T06:01:05.114Z,100730.20
2023-05-19T06:03:33.575Z,100730.14
2023-05-19T06:06:05.180Z,100732.88
2023-05-19T06:08:32.974Z,100730.36
2023-05-19T06:11:00.602Z,100731.17
2023-05-19T06:13:29.950Z,100731.25
2023-05-19T06:15:59.226Z,100733.52
2023-05-19T06:18:32.774Z,100735.95
2023-05-19T06:21:01.512Z,100737.74
2023-05-19T06:23:30.530Z,100737.38
2023-05-19T06:25:58.298Z,100738.42
2023-05-19T06:28:25.788Z,100738.63
2023-05-19T06:30:53.437Z,100736.92
2023-05-19T06:33:28.994Z,100739.60
2023-05-19T06:35:57.223Z,100735.77
2023-05-19T06:38:25.455Z,100738.77
2023-05-19T06:40:52.909Z,100741.27
2023-05-19T06:43:20.814Z,100737.17
2023-05-19T06:45:59.352Z,100737.20
2023-05-19T06:48:27.110Z,100738.83
2023-05-19T06:50:54.917Z,100733.39
2023-05-19T06:53:22.905Z,100735.81
2023-05-19T06:55:59.298Z,100742.02
2023-05-19T06:58:29.266Z,100744.02
2023-05-19T07:00:57.442Z,100740.29
2023-05-19T07:03:27.021Z,100747.09
2023-05-19T07:39:03.368Z,100756.70
2023-05-19T07:41:31.432Z,100761.89
2023-05-19T07:43:59.096Z,100763.11
2023-05-19T07:46:26.840Z,100762.17
2023-05-19T07:48:55.804Z,100757.39
2023-05-19T07:51:23.315Z,100759.78
2023-05-19T07:53:51.769Z,100753.90
2023-05-19T07:56:19.662Z,100758.70
2023-05-19T07:58:50.252Z,100760.31
2023-05-19T08:01:17.749Z,100759.39
2023-05-19T08:03:47.736Z,100760.88
2023-05-19T08:06:15.270Z,100761.73
2023-05-19T08:08:44.034Z,100763.02
2023-05-19T08:11:12.385Z,100768.56
2023-05-19T08:13:40.041Z,100766.75
2023-05-19T08:16:07.735Z,100771.98
2023-05-19T08:18:35.570Z,100771.89
2023-05-19T08:21:03.137Z,100772.80
2023-05-19T08:23:30.540Z,100776.84
2023-05-19T08:25:58.175Z,100775.95
2023-05-19T08:28:25.773Z,100774.05
2023-05-19T08:30:53.267Z,100773.67
2023-05-19T08:33:23.724Z,100774.60
2023-05-19T08:35:51.434Z,100777.47
2023-05-19T08:38:18.932Z,100774.54
2023-05-19T08:40:47.112Z,100774.36
2023-05-19T08:43:14.779Z,100772.70
2023-05-19T08:45:48.663Z,100778.61
2023-05-19T08:48:17.666Z,100776.46
2023-05-19T08:50:51.086Z,100776.96
2023-05-19T08:53:33.271Z,100776.18
2023-05-19T08:56:11.035Z,100776.02
2023-05-19T08:58:44.339Z,100776.37
2023-05-19T09:01:14.671Z,100778.24
2023-05-19T09:03:42.678Z,100774.10
2023-05-19T09:06:13.030Z,100775.83
2023-05-19T09:08:41.845Z,100777.23
2023-05-19T09:11:09.851Z,100774.80
2023-05-19T09:13:37.492Z,100779.72
2023-05-19T09:16:05.463Z,100776.55
2023-05-19T09:18:33.188Z,100774.37
2023-05-19T09:21:03.220Z,100773.77
2023-05-19T09:23:33.894Z,100778.69
2023-05-19T09:26:08.197Z,100776.91
2023-05-19T09:28:36.855Z,100775.67
2023-05-19T09:31:09.791Z,100777.20
2023-05-19T09:33:39.399Z,100770.44
2023-05-19T09:36:08.813Z,100771.85
2023-05-19T09:38:37.268Z,100774.48
2023-05-19T09:41:05.892Z,100767.14
2023-05-19T09:43:34.178Z,100767.95
2023-05-19T09:46:05.048Z,100765.08
2023-05-19T09:48:33.516Z,100766.15
2023-05-19T09:51:01.741Z,100764.50
2023-05-19T09:53:30.721Z,100768.70
2023-05-19T09:55:58.375Z,100770.30
2023-05-19T09:58:27.021Z,100771.30
2023-05-19T10:00:57.508Z,100770.66
2023-05-19T10:03:26.018Z,100766.21
2023-05-19T10:05:53.906Z,100775.17
2023-05-19T10:08:22.044Z,100770.67
2023-05-19T10:10:49.621Z,100764.75
2023-05-19T10:13:17.188Z,100769.05
2023-05-19T10:15:58.190Z,100764.27
2023-05-19T10:18:27.346Z,100762.71
2023-05-19T10:20:54.938Z,100756.79
2023-05-19T10:23:22.820Z,100758.20
2023-05-19T10:25:52.121Z,100759.80
2023-05-19T10:28:21.542Z,100761.20
2023-05-19T10:30:50.241Z,100764.75
2023-05-19T10:33:21.328Z,100753.86
2023-05-19T10:36:21.748Z,100759.35
2023-05-19T10:38:51.516Z,100755.86
2023-05-19T10:41:38.432Z,100754.66
2023-05-19T10:44:24.819Z,100754.16
2023-05-19T10:46:54.205Z,100756.91
2023-05-19T10:49:23.547Z,100763.81
2023-05-19T10:51:52.954Z,100761.19
2023-05-19T10:54:41.294Z,100767.35
2023-05-19T10:57:08.805Z,100770.01
2023-05-19T10:59:40.525Z,100768.47
2023-05-19T11:02:09.014Z,100762.76
2023-05-19T11:04:51.085Z,100762.39
2023-05-19T11:07:20.790Z,100756.10
2023-05-19T11:09:52.248Z,100754.55
2023-05-19T11:12:24.642Z,100753.64
2023-05-19T11:14:55.988Z,100756.11
2023-05-19T11:17:25.113Z,100754.70
2023-05-19T11:19:56.987Z,100751.77
2023-05-19T11:22:26.883Z,100759.14
2023-05-19T11:24:57.821Z,100752.14
2023-05-19T11:27:33.013Z,100754.74
2023-05-19T11:30:11.930Z,100756.61
2023-05-19T11:32:39.902Z,100762.14
2023-05-19T11:35:08.542Z,100757.42
2023-05-19T11:37:36.178Z,100759.48
2023-05-19T11:40:07.911Z,100760.14
2023-05-19T11:42:36.528Z,100766.52
2023-05-19T11:45:05.192Z,100764.80
2023-05-19T11:47:47.107Z,100761.33
2023-05-19T11:50:23.371Z,100762.59
2023-05-19T11:52:52.119Z,100757.23
2023-05-19T11:55:23.481Z,100759.44
2023-05-19T11:58:05.219Z,100761.08
2023-05-19T12:00:40.865Z,100762.14
2023-05-19T12:03:09.837Z,100762.41
2023-05-19T12:05:42.882Z,100764.55
2023-05-19T12:08:12.297Z,100769.27
2023-05-19T12:10:40.158Z,100765.02
2023-05-19T12:13:10.823Z,100768.33
2023-05-19T12:15:39.431Z,100766.13
2023-05-19T12:18:07.792Z,100765.91
2023-05-19T12:20:38.114Z,100755.73
2023-05-19T12:23:06.056Z,100757.50
2023-05-19T12:25:34.228Z,100764.20
2023-05-19T12:28:05.146Z,100761.54
2023-05-19T12:30:33.417Z,100755.25
2023-05-19T12:33:02.176Z,100759.51
2023-05-19T12:35:36.583Z,100761.61
2023-05-19T12:38:05.424Z,100756.74
2023-05-19T12:40:36.752Z,100757.90
2023-05-19T12:43:04.560Z,100757.91
2023-05-19T12:45:36.512Z,100761.55
2023-05-19T12:48:11.972Z,100767.95
2023-05-19T12:50:39.511Z,100762.05
2023-05-19T12:53:11.533Z,100767.64
2023-05-19T12:55:43.394Z,100768.79
2023-05-19T12:58:14.051Z,100769.80
2023-05-19T13:00:42.809Z,100769.67
2023-05-19T13:03:16.323Z,100762.09
2023-05-19T13:05:46.824Z,100754.40
2023-05-19T13:08:16.625Z,100757.88
2023-05-19T13:10:45.176Z,100754.89
2023-05-19T13:13:12.696Z,100753.23
2023-05-19T13:15:42.425Z,100749.52
2023-05-19T13:18:11.312Z,100747.94
2023-05-19T13:20:40.002Z,100744.17
2023-05-19T13:23:07.606Z,100745.05
2023-05-19T13:25:35.393Z,100744.02
2023-05-19T13:28:06.006Z,100742.80
2023-05-19T13:30:34.660Z,100743.52
2023-05-19T13:33:03.347Z,100742.21
2023-05-19T13:35:37.577Z,100741.26
2023-05-19T13:38:10.663Z,100733.91
2023-05-19T13:40:40.103Z,100732.89
2023-05-19T13:43:09.064Z,100730.13
2023-05-19T13:45:37.315Z,100722.22
2023-05-19T13:48:07.593Z,100722.69
2023-05-19T13:50:35.420Z,100729.21
2023-05-19T13:53:04.115Z,100723.20
2023-05-19T13:55:32.103Z,100721.84
2023-05-19T13:57:59.581Z,100722.05
2023-05-19T14:00:27.379Z,100724.41
2023-05-19T14:02:55.518Z,100727.90
2023-05-19T14:05:23.383Z,100736.27
2023-05-19T14:07:51.168Z,100731.98
2023-05-19T14:10:18.644Z,100729.27
2023-05-19T14:13:14.161Z,100730.68
2023-05-19T14:15:38.310Z,100733.56
2023-05-19T14:18:07.114Z,100731.59
2023-05-19T14:20:35.114Z,100729.36
2023-05-19T14:23:03.450Z,100726.39
2023-05-19T14:25:30.995Z,100733.52
2023-05-19T14:27:58.497Z,100725.60
2023-05-19T14:30:26.080Z,100720.88
2023-05-19T14:32:54.073Z,100722.09
2023-05-19T14:35:22.013Z,100719.11
2023-05-19T14:37:51.249Z,100722.21
2023-05-19T14:40:19.043Z,100722.95
2023-05-19T14:42:46.499Z,100725.34
2023-05-19T14:45:14.455Z,100722.98
2023-05-19T14:47:42.012Z,100720.28
2023-05-19T14:50:09.613Z,100723.98
2023-05-19T14:52:37.124Z,100721.17
2023-05-19T14:55:05.187Z,100722.54
2023-05-19T14:57:32.694Z,100730.33
2023-05-19T15:00:00.275Z,100736.17
2023-05-19T15:02:29.587Z,100729.43
2023-05-19T15:04:57.482Z,100734.71
2023-05-19T15:07:25.083Z,100734.42
2023-05-19T15:09:52.677Z,100734.23
2023-05-19T15:12:20.079Z,100731.58
2023-05-19T15:14:47.574Z,100731.80
2023-05-19T15:17:15.110Z,100732.71
2023-05-19T15:19:43.169Z,100735.45
2023-05-19T15:22:10.693Z,100734.27
2023-05-19T15:24:38.241Z,100734.73
2023-05-19T15:27:05.908Z,100734.89
2023-05-19T15:29:33.588Z,100727.65
2023-05-19T15:32:01.219Z,100728.53
2023-05-19T15:34:28.829Z,100728.48
2023-05-19T15:36:56.610Z,100724.83
2023-05-19T15:39:24.260Z,100723.15
2023-05-19T15:41:51.913Z,100724.40
2023-05-19T15:44:19.494Z,100722.29
2023-05-19T15:46:47.146Z,100723.30
2023-05-19T15:49:14.868Z,100729.23
2023-05-19T15:51:42.580Z,100726.34
2023-05-19T15:54:10.343Z,100727.77
2023-05-19T15:56:38.075Z,100728.91
2023-05-19T15:59:05.677Z,100732.57
2023-05-19T16:01:33.203Z,100725.30
2023-05-19T16:04:02.568Z,100728.52
2023-05-19T16:06:30.808Z,100737.20
2023-05-19T16:08:58.577Z,100742.02
2023-05-19T16:11:27.642Z,100745.63
2023-05-19T16:13:55.197Z,100749.23
2023-05-19T16:16:22.890Z,100754.92
2023-05-19T16:18:50.780Z,100753.15
2023-05-19T16:21:18.559Z,100755.23
2023-05-19T16:23:46.277Z,100757.62
2023-05-19T16:26:13.926Z,100755.23
2023-05-19T16:28:41.459Z,100760.02
2023-05-19T16:31:09.019Z,100762.41
2023-05-19T16:33:36.484Z,100764.95
2023-05-19T16:36:04.242Z,100763.93
2023-05-19T16:38:31.789Z,100767.96
2023-05-19T16:40:59.501Z,100770.52
2023-05-19T16:43:27.004Z,100770.74
2023-05-19T16:45:54.621Z,100777.56
2023-05-19T16:48:22.203Z,100777.61
2023-05-19T16:50:49.909Z,100777.60
2023-05-19T16:53:17.776Z,100780.29
2023-05-19T16:55:45.312Z,100783.51
2023-05-19T16:58:13.134Z,100784.11
2023-05-19T17:00:40.776Z,100785.33
2023-05-19T17:03:08.388Z,100793.42
2023-05-19T17:05:38.583Z,100791.73
2023-05-19T17:08:06.508Z,100790.20
2023-05-19T17:10:34.270Z,100789.80
2023-05-19T17:13:02.434Z,100791.84
2023-05-19T17:15:30.032Z,100793.58
2023-05-19T17:17:57.523Z,100793.11
2023-05-19T17:20:25.179Z,100792.19
2023-05-19T17:22:53.103Z,100793.66
2023-05-19T17:25:20.615Z,100794.70
2023-05-19T17:27:48.149Z,100792.06
2023-05-19T17:30:15.671Z,100788.77
2023-05-19T17:32:43.248Z,100797.04
2023-05-19T17:35:11.029Z,100796.98
2023-05-19T17:37:38.621Z,100804.92
2023-05-19T17:40:07.038Z,100802.91
2023-05-19T17:42:34.517Z,100804.45
2023-05-19T17:45:03.954Z,100803.94
2023-05-19T17:47:31.642Z,100802.89
2023-05-19T17:49:59.111Z,100806.66
2023-05-19T17:52:27.275Z,100807.81
2023-05-19T17:54:55.114Z,100810.47
2023-05-19T17:57:24.674Z,100811.21
2023-05-19T17:59:52.883Z,100812.34
2023-05-19T18:02:20.625Z,100817.59
2023-05-19T18:04:48.311Z,100819.70
2023-05-19T18:07:17.228Z,100826.29
2023-05-19T18:09:46.749Z,100827.05
2023-05-19T18:12:14.575Z,100830.15
2023-05-19T18:14:42.287Z,100834.30
2023-05-19T18:17:10.107Z,100836.41
2023-05-19T18:19:37.597Z,100835.35
2023-05-19T18:22:05.585Z,100837.56
2023-05-19T18:24:33.389Z,100838.10
2023-05-19T18:27:01.092Z,100836.16
2023-05-19T18:29:28.866Z,100839.22
2023-05-19T18:31:56.681Z,100837.35
2023-05-19T18:34:24.197Z,100838.36
2023-05-19T18:36:51.911Z,100839.61
2023-05-19T18:39:19.749Z,100844.86
2023-05-19T18:41:47.931Z,100842.41
2023-05-19T18:44:15.609Z,100840.06
2023-05-19T18:46:43.348Z,100847.42
2023-05-19T18:49:11.993Z,100845.45
2023-05-19T18:51:39.871Z,100843.31
2023-05-19T18:54:07.636Z,100846.03
2023-05-19T18:56:35.865Z,100844.84
2023-05-19T18:59:03.413Z,100844.58
2023-05-19T19:01:31.100Z,100843.42
2023-05-19T19:03:58.926Z,100845.84
2023-05-19T19:06:26.586Z,100849.11
2023-05-19T19:08:54.132Z,100846.35
2023-05-19T19:11:22.092Z,100846.49
2023-05-19T19:13:51.672Z,100845.99
2023-05-19T19:16:19.544Z,100846.87
2023-05-19T19:18:47.430Z,100851.52
2023-05-19T19:21:15.476Z,100851.08
2023-05-19T19:23:43.346Z,100854.38
2023-05-19T19:26:10.987Z,100856.20
2023-05-19T19:28:38.669Z,100858.05
2023-05-19T19:31:06.389Z,100855.53
2023-05-19T19:33:34.348Z,100854.73
2023-05-19T19:36:02.347Z,100855.20
2023-05-19T19:38:30.000Z,100852.07
2023-05-19T19:40:57.514Z,100851.61
2023-05-19T19:43:25.138Z,100852.92
2023-05-19T19:46:02.791Z,100851.97
2023-05-19T19:48:30.936Z,100849.27
2023-05-19T19:50:58.880Z,100851.43
2023-05-19T19:53:26.674Z,100846.86
2023-05-19T19:56:00.216Z,100849.98
2023-05-19T19:58:28.326Z,100851.02
2023-05-19T20:01:06.568Z,100852.67
2023-05-19T20:03:34.327Z,100854.79
2023-05-19T20:06:01.983Z,100850.77
2023-05-19T20:08:29.472Z,100846.82
2023-05-19T20:10:57.048Z,100849.77
2023-05-19T20:13:24.748Z,100850.45
2023-05-19T20:15:52.347Z,100850.25
2023-05-19T20:18:19.998Z,100852.54
2023-05-19T20:20:47.484Z,100849.08
2023-05-19T20:23:16.580Z,100847.00
2023-05-19T20:26:02.349Z,100844.51
2023-05-19T20:28:32.120Z,100848.49
2023-05-19T20:30:59.677Z,100848.10
2023-05-19T20:33:27.106Z,100851.05
2023-05-19T20:35:54.630Z,100854.88
2023-05-19T20:38:22.194Z,100857.83
2023-05-19T20:40:49.718Z,100862.13
2023-05-19T20:43:17.264Z,100862.05
2023-05-19T20:45:44.967Z,100857.86
2023-05-19T20:48:12.473Z,100861.63
2023-05-19T20:50:40.334Z,100866.20
2023-05-19T20:53:07.841Z,100865.30
2023-05-19T20:55:38.205Z,100865.06
2023-05-19T20:58:06.029Z,100867.70
2023-05-19T21:00:33.963Z,100864.61
2023-05-19T21:03:02.120Z,100861.61
2023-05-19T21:05:29.864Z,100862.73
2023-05-19T21:07:57.500Z,100865.05
2023-05-19T21:10:25.066Z,100870.67
2023-05-19T21:12:52.590Z,100872.84
2023-05-19T21:15:20.203Z,100872.50
2023-05-19T21:17:47.999Z,100875.30
2023-05-19T21:20:15.455Z,100876.79
2023-05-19T21:22:42.896Z,100879.69
2023-05-19T21:25:11.106Z,100878.90
2023-05-19T21:27:40.013Z,100877.53
2023-05-19T21:30:09.872Z,100874.48
2023-05-19T21:32:37.422Z,100876.07
2023-05-19T21:35:06.526Z,100872.40
2023-05-19T21:37:34.114Z,100874.64
2023-05-19T21:40:01.999Z,100874.76
2023-05-19T21:42:29.588Z,100879.28
2023-05-19T21:44:57.190Z,100883.06
2023-05-19T21:47:24.804Z,100879.61
2023-05-19T21:49:52.264Z,100884.04
2023-05-19T21:52:19.832Z,100881.98
2023-05-19T21:54:48.259Z,100883.65
2023-05-19T21:57:15.768Z,100890.69
2023-05-19T21:59:44.461Z,100888.81
2023-05-19T22:02:12.351Z,100889.08
2023-05-19T22:04:40.081Z,100891.17
2023-05-19T22:07:07.854Z,100888.39
2023-05-19T22:09:35.510Z,100891.36
2023-05-19T22:12:02.981Z,100893.08
2023-05-19T22:14:30.611Z,100894.67
2023-05-19T22:16:58.248Z,100897.77
2023-05-19T22:19:25.948Z,100894.55
2023-05-19T22:22:01.811Z,100895.81
2023-05-19T22:24:33.577Z,100892.27
2023-05-19T22:27:01.234Z,100888.92
2023-05-19T22:29:28.791Z,100889.94
2023-05-19T22:31:56.415Z,100890.68
2023-05-19T22:34:24.350Z,100892.77
2023-05-19T22:36:52.002Z,100892.88
2023-05-19T22:39:19.541Z,100891.12
2023-05-19T22:41:47.171Z,100892.86
2023-05-19T22:44:16.557Z,100892.59
2023-05-19T22:46:47.052Z,100892.52
2023-05-19T22:49:14.587Z,100897.20
2023-05-19T22:51:42.144Z,100898.20
2023-05-19T22:54:10.993Z,100901.45
2023-05-19T22:56:38.552Z,100895.42
2023-05-19T22:59:06.250Z,100894.99
2023-05-19T23:01:33.883Z,100892.70
2023-05-19T23:04:01.527Z,100894.02
2023-05-19T23:06:29.220Z,100896.69
2023-05-19T23:09:01.706Z,100896.00
2023-05-19T23:11:29.377Z,100896.66
2023-05-19T23:13:57.080Z,100892.38
2023-05-19T23:16:24.703Z,100895.38
2023-05-19T23:18:52.315Z,100891.04
2023-05-19T23:21:19.904Z,100890.65
2023-05-19T23:23:47.448Z,100890.70
2023-05-19T23:26:15.045Z,100887.04
2023-05-19T23:28:43.079Z,100887.38
2023-05-19T23:31:11.040Z,100891.60
2023-05-19T23:33:38.621Z,100891.02
2023-05-19T23:36:10.654Z,100892.71
2023-05-19T23:38:38.490Z,100888.15
2023-05-19T23:41:06.252Z,100889.13
2023-05-19T23:43:33.849Z,100891.08
2023-05-19T23:46:01.686Z,100887.63
2023-05-19T23:48:29.759Z,100890.57
2023-05-19T23:50:58.227Z,100889.69
2023-05-19T23:53:25.976Z,100891.05
2023-05-19T23:55:53.492Z,100890.21
2023-05-19T23:58:21.359Z,100886.23
